Event Mercenaries, Inc.

2016 Lead the Way 5K

Age Group Results

June 05, 2016


Results by Event Mercenaries, Inc.


Men: Top Finishers 1-19 20-29 30-39 40-49 50-59
Women: Top Finishers 1-19 20-29 30-39 40-49 50-59 60-99

5K RUN

Top

Female OPEN Winners

Place Name City Bib No Age Overall Total Time Pace
1 Maura Thompson Asheville NC 612 27 5 25:18.6 8:08/M
2 Ann Marie Hammond Black Mountain NC 555 32 7 25:41.8 8:15/M
3 Beck Brunner Black Mountain NC 524 42 14 27:27.0 8:50/M
Top

Male OPEN Winners

Place Name City Bib No Age Overall Total Time Pace
1 Mark Wells Black Mountain NC 617 50 3 24:53.4 8:00/M
2 Kris Bartman Black Mountain NC 513 40 11 26:49.8 8:37/M
3 Tripp Anderson Black Mountain NC 507 43 12 26:50.4 8:38/M
Top

Female 19 and Under

Place Name City Bib No Age Overall Total Time Pace
1 Celese Mobley Black Mountain NC 583 11 21 29:51.1 9:36/M
2 Grace Vale Black Mountain NC 614 9 22 30:26.0 9:47/M
3 Haleigh Kamer Black Mountain NC 570 9 23 30:46.2 9:54/M
4 Carly Hancock Black Mountain NC 556 11 27 31:42.7 10:12/M
5 Jordan Robertson Swannanoa NC 597 8 40 36:53.1 11:52/M
6 Tegan Allison Black Mountain NC 503 11 46 38:29.6 12:22/M
7 Kaylee Allison Black Mountain NC 501 9 50 38:45.6 12:28/M
8 Mara Stout Fairview NC 285 7 51 38:53.1 12:30/M
9 Savannah Creasman Black Mountain NC 270 9 54 39:13.4 12:37/M
10 Taylor Marie Goodwin Swannanoa NC 551 8 55 39:20.4 12:39/M
11 Piper Berry Black Mountain NC 516 10 58 41:50.0 13:27/M
12 Lila Counce Black Mountain NC 536 11 59 41:50.9 13:27/M
13 Maddie Hancock Black Mountain NC 557 8 62 43:53.4 14:07/M
14 Lily Berry Black Mountain NC 515 7 64 44:29.7 14:18/M
15 Madison Eldridge Black Mountain NC 541 9 77 48:33.4 15:37/M
16 Cristina Granger Black Mountain NC 552 6 81 49:07.7 15:48/M
17 Gabby Sawyer Marshall NC 600 14 84 50:12.4 16:08/M
18 Lucy Gibbon Black Mountain NC 549 8 96 56:44.4 18:15/M
19 Emilee Hanna Arden NC 560 11 98 56:48.3 18:16/M
20 Evelyn Croley Ashville NC 623 11 99 56:48.7 18:16/M
21 Emma Arrington Black Mountain NC 508 5 100 58:57.6 18:57/M
Top

Male 19 and Under

Place Name City Bib No Age Overall Total Time Pace
1 Daniel Averett Black Mountain NC 510 13 1 22:31.5 7:14/M
2 Sirar Snider Black Mountain NC 609 9 2 24:06.0 7:45/M
3 Chamberland Andersen Black Mountain NC 505 9 4 24:59.4 8:02/M
4 Max Brownlee Black Mountain NC 521 10 6 25:36.4 8:14/M
5 Caden Mobley Black Mountain NC 582 8 8 26:43.2 8:35/M
6 Colton Lundsford Black Mountain NC 577 9 9 26:46.3 8:36/M
7 Jacob Bartman Black Mountain NC 512 9 10 26:48.6 8:37/M
8 Mylo Morgan Black Mountain NC 586 9 15 27:40.4 8:54/M
9 Wyatt Brownlee Black Mountain NC 522 7 16 27:40.9 8:54/M
10 Tyler Scouten Black Mountain NC 605 8 19 29:39.3 9:32/M
11 Cadence Andersen Black Mountain NC 264 6 24 30:50.8 9:55/M
12 Jack Wesley Burk Black Mountain NC 528 9 29 33:04.7 10:38/M
13 Liam Feste Black Mountain NC 545 9 31 33:18.8 10:42/M
14 Boone Ferguson Asheville NC 542 6 35 35:15.4 11:20/M
15 Oakley McAllister Black Mountain NC 578 6 36 35:20.3 11:22/M
16 Caden Little Black Mountain NC 575 8 44 37:50.4 12:10/M
17 Elias Lang Black Mountain NC 574 9 47 38:33.3 12:24/M
18 Luke Hall Swannanoa NC 619 9 48 38:37.8 12:25/M
19 Haiden Jellison Black Mountain NC 566 9 60 43:20.2 13:56/M
20 Jackson Jones Black Mountain NC 567 9 61 43:23.0 13:57/M
21 Daniel Shirk Black Mountain NC 607 8 66 45:26.0 14:37/M
22 Ian Shirk Black Mountain NC 608 9 68 45:35.8 14:39/M
23 Taylor Cook Black Mountain NC 534 10 69 45:49.5 14:44/M
24 Jack Gibbon Black Mountain NC 548 6 71 46:57.6 15:06/M
25 Liam Robertson Swannanoa NC 598 6 73 47:45.4 15:21/M
26 Randy Schmitz Black Mountain NC 603 8 75 48:06.0 15:28/M
27 Rip Counce Black Mountain NC 537 9 78 48:34.7 15:37/M
28 Hunter Griffin Black Mountain NC 554 6 102 59:50.9 19:14/M
Top

Female 20 to 29

Place Name City Bib No Age Overall Total Time Pace
1 Caroline Clark Swannanoa NC 532 25 32 33:21.4 10:43/M
2 Kristin Justus Fletcher NC 622 29 42 37:06.7 11:56/M
3 Angela Brown Green Mountain NC 520 27 57 41:18.7 13:17/M
4 Kimberly Morris Black Mountain NC 587 23 83 49:33.6 15:56/M
5 Hannah Hunter Asheville NC 563 26 88 52:17.9 16:49/M
6 Kristen Arrington Black Mountain NC 509 29 101 58:59.3 18:58/M
7 Gayle Burgin Black Mountain NC 527 26 104 1:00:23.3 19:25/M
Top

Male 20 to 29

Place Name City Bib No Age Overall Total Time Pace
1 Spencer Clark Swannanoa NC 533 26 33 33:23.8 10:44/M
2 John Melton Green Mountain NC 581 29 34 33:29.0 10:46/M
3 Tyler Hunter Asheville NC 564 28 89 52:19.4 16:49/M
Top

Female 30 to 39

Place Name City Bib No Age Overall Total Time Pace
1 Jennifer Mobley Black Mountain NC 584 31 26 31:19.4 10:04/M
2 Sonya Boone Black Mountain NC 624 37 38 35:59.2 11:34/M
3 Melissa Stout Fairview NC 610 36 52 38:55.7 12:31/M
4 Amy Berry Black Mountain NC 514 37 65 44:30.7 14:19/M
5 Crystal Shirk Black Mountain NC 606 37 67 45:30.5 14:38/M
6 Sheri Robertson Swannanoa NC 599 39 74 47:46.3 15:22/M
7 Ashley Kuykendall Arden NC 572 38 86 51:55.5 16:42/M
8 Nora Nelson Black Mountain NC 588 35 94 54:28.2 17:31/M
9 Ashley McKinney Asheville NC 579 33 95 54:57.6 17:40/M
10 Ashley Gibbon Black Mountain NC 547 39 97 56:45.7 18:15/M
Top

Male 30 to 39

Place Name City Bib No Age Overall Total Time Pace
1 David Taylor Black Mountain NC 611 39 13 26:57.3 8:40/M
2 Tex Mobley Black Mountain NC 585 31 25 31:09.2 10:01/M
3 Walker Ferguson Asheville NC 543 36 39 36:36.8 11:46/M
4 Andy Gibbon Black Mountain NC 546 37 72 46:58.6 15:06/M
5 Will Allison Black Mountain NC 504 36 79 48:48.9 15:41/M
Top

Female 40 to 49

Place Name City Bib No Age Overall Total Time Pace
1 Rachel Averett Black Mountain NC 511 40 18 28:13.7 9:04/M
2 Tiffany Hancock Black Mountain NC 559 42 28 31:44.9 10:12/M
3 Aimee Feste Black Mountain NC 544 40 37 35:24.1 11:23/M
4 Jaime Goodwin Swannanoa NC 550 40 53 39:04.9 12:34/M
5 Semia Ostrover Black Mountain NC 590 44 70 45:56.5 14:46/M
6 Carrie Schmitz Black Mountain NC 602 42 76 48:11.2 15:30/M
7 Katherine Counce Black Mountain NC 535 44 82 49:12.0 15:49/M
8 Stephanie Jones Black Mountain NC 568 45 93 54:08.0 17:24/M
9 Danielle Griffin Black Mountain NC 553 49 103 1:00:09.4 19:20/M
Top

Male 40 to 49

Place Name City Bib No Age Overall Total Time Pace
1 Zach Brownlee Black Mountain NC 523 43 17 27:41.5 8:54/M
2 Paul Scouten Black Mountain NC 604 46 20 29:42.9 9:33/M
3 Jason Burk Black Mountain NC 529 40 30 33:08.4 10:39/M
4 Doug Robertson Swannanoa NC 596 46 41 36:55.3 11:52/M
5 Danny Little Black Mountain NC 576 44 45 37:52.1 12:11/M
6 Kevin Hall Swannanoa NC 620 41 49 38:41.2 12:26/M
7 Robert Hancock Black Mountain NC 558 42 63 43:59.6 14:09/M
8 Kyle Kuykendall Arden NC 573 45 87 51:57.8 16:42/M
9 Lee McKinney Asheville NC 580 43 91 53:56.4 17:21/M
Top

Female 50 to 59

Place Name City Bib No Age Overall Total Time Pace
1 Sheena Sawyer Marshall NC 601 57 85 50:36.3 16:16/M
2 Cindy Bowman Candler NC 517 59 92 54:05.9 17:23/M
3 Gregg Sandra Black Mountain NC 621 57 105 1:00:25.6 19:26/M
4 Susan Catlin-Snow Fairview NC 531 56 106 1:00:28.4 19:27/M
Top

Male 50 to 59

Place Name City Bib No Age Overall Total Time Pace
1 Kim Bowman Candler NC 519 58 90 53:54.5 17:20/M
Top

Female 60 and Over

Place Name City Bib No Age Overall Total Time Pace
1 Terri Justus Swannanoa NC 569 62 43 37:08.8 11:56/M
2 Laura Walls Black Mountain NC 616 63 56 41:04.1 13:12/M
3 Linda Allison Black Mountain NC 502 68 80 48:50.4 15:42/M
4 Deborah Kubiak Asheville NC 571 63 107 1:00:29.1 19:27/M